createdAt,value
2019-04-11T00:00:50.603Z,8.85
2019-04-11T00:01:56.343Z,8.85
2019-04-11T00:03:02.875Z,8.84
2019-04-11T00:04:08.282Z,8.82
2019-04-11T00:05:13.400Z,8.81
2019-04-11T00:06:19.257Z,8.80
2019-04-11T00:07:24.632Z,8.79
2019-04-11T00:08:30.194Z,8.77
2019-04-11T00:09:35.150Z,8.75
2019-04-11T00:10:41.554Z,8.71
2019-04-11T00:11:46.758Z,8.70
2019-04-11T00:12:52.080Z,8.67
2019-04-11T00:13:57.811Z,8.65
2019-04-11T00:15:04.277Z,8.64
2019-04-11T00:16:09.476Z,8.64
2019-04-11T00:17:14.647Z,8.63
2019-04-11T00:18:20.783Z,8.64
2019-04-11T00:19:27.286Z,8.62
2019-04-11T00:20:32.555Z,8.63
2019-04-11T00:21:38.066Z,8.63
2019-04-11T00:22:44.213Z,8.62
2019-04-11T00:23:50.202Z,8.61
2019-04-11T00:24:55.537Z,8.60
2019-04-11T00:26:00.608Z,8.60
2019-04-11T00:27:05.845Z,8.60
2019-04-11T00:28:10.856Z,8.58
2019-04-11T00:29:16.415Z,8.55
2019-04-11T00:30:21.669Z,8.54
2019-04-11T00:31:26.652Z,8.53
2019-04-11T00:32:31.656Z,8.52
2019-04-11T00:33:36.695Z,8.51
2019-04-11T00:34:42.721Z,8.50
2019-04-11T00:35:48.101Z,8.49
2019-04-11T00:36:53.168Z,8.47
2019-04-11T00:37:59.327Z,8.47
2019-04-11T00:39:07.683Z,8.44
2019-04-11T00:40:13.139Z,8.42
2019-04-11T00:41:18.139Z,8.41
2019-04-11T00:42:23.138Z,8.40
2019-04-11T00:43:35.292Z,8.37
2019-04-11T00:44:34.821Z,8.36
2019-04-11T00:45:40.201Z,8.35
2019-04-11T00:46:45.347Z,8.33
2019-04-11T00:47:50.392Z,8.32
2019-04-11T00:48:55.614Z,8.31
2019-04-11T00:50:01.015Z,8.30
2019-04-11T00:51:07.587Z,8.29
2019-04-11T00:52:12.746Z,8.28
2019-04-11T00:53:18.918Z,8.25
2019-04-11T00:54:24.793Z,8.24
2019-04-11T00:55:31.368Z,8.22
2019-04-11T00:56:36.772Z,8.20
2019-04-11T00:57:43.156Z,8.19
2019-04-11T00:58:49.855Z,8.17
2019-04-11T00:59:55.043Z,8.15
2019-04-11T01:01:00.019Z,8.15
2019-04-11T01:02:05.807Z,8.13
2019-04-11T01:03:11.750Z,8.11
2019-04-11T01:04:17.933Z,8.11
2019-04-11T01:05:23.558Z,8.11
2019-04-11T01:06:30.014Z,8.10
2019-04-11T01:07:35.321Z,8.10
2019-04-11T01:08:40.551Z,8.08
2019-04-11T01:09:45.677Z,8.07
2019-04-11T01:10:51.743Z,8.06
2019-04-11T01:11:56.850Z,8.06
2019-04-11T01:13:01.882Z,8.05
2019-04-11T01:14:07.847Z,8.02
2019-04-11T01:15:15.460Z,8.01
2019-04-11T01:16:28.911Z,7.98
2019-04-11T01:17:33.906Z,7.97
2019-04-11T01:18:38.966Z,7.96
2019-04-11T01:19:44.294Z,7.93
2019-04-11T01:20:49.684Z,7.92
2019-04-11T01:21:55.206Z,7.91
2019-04-11T01:23:00.620Z,7.88
2019-04-11T01:24:06.988Z,7.88
2019-04-11T01:25:14.727Z,7.87
2019-04-11T01:26:19.724Z,7.86
2019-04-11T01:27:25.762Z,7.86
2019-04-11T01:28:31.047Z,7.87
2019-04-11T01:29:36.192Z,7.86
2019-04-11T01:30:47.210Z,7.85
2019-04-11T01:31:55.931Z,7.83
2019-04-11T01:33:00.999Z,7.81
2019-04-11T01:34:06.479Z,7.80
2019-04-11T01:35:13.004Z,7.79
2019-04-11T01:36:18.556Z,7.79
2019-04-11T01:37:23.944Z,7.77
2019-04-11T01:38:30.425Z,7.75
2019-04-11T01:39:49.561Z,7.74
2019-04-11T01:40:54.743Z,7.73
2019-04-11T01:42:00.748Z,7.71
2019-04-11T01:43:06.060Z,7.71
2019-04-11T01:44:12.188Z,7.72
2019-04-11T01:45:19.133Z,7.72
2019-04-11T01:46:24.478Z,7.72
2019-04-11T01:47:47.603Z,7.70
2019-04-11T01:49:04.195Z,7.69
2019-04-11T01:50:10.578Z,7.65
2019-04-11T01:51:15.818Z,7.63
2019-04-11T01:52:20.787Z,7.60
2019-04-11T01:53:26.836Z,7.60
2019-04-11T01:54:32.176Z,7.58
2019-04-11T01:55:37.286Z,7.56
2019-04-11T01:56:42.303Z,7.54
2019-04-11T01:57:47.477Z,7.52
2019-04-11T01:58:53.111Z,7.51
2019-04-11T01:59:58.274Z,7.49
2019-04-11T02:01:12.593Z,7.49
2019-04-11T02:02:41.025Z,7.49
2019-04-11T02:04:07.820Z,7.47
2019-04-11T02:05:19.054Z,7.45
2019-04-11T02:06:24.282Z,7.44
2019-04-11T02:07:29.342Z,7.43
2019-04-11T02:08:35.529Z,7.43
2019-04-11T02:09:40.704Z,7.42
2019-04-11T02:10:46.101Z,7.40
2019-04-11T02:11:52.020Z,7.40
2019-04-11T02:12:57.448Z,7.40
2019-04-11T02:14:12.082Z,7.39
2019-04-11T02:15:10.289Z,7.38
2019-04-11T02:16:15.434Z,7.37
2019-04-11T02:17:20.514Z,7.34
2019-04-11T02:18:25.958Z,7.32
2019-04-11T02:19:30.889Z,7.31
2019-04-11T02:20:36.886Z,7.31
2019-04-11T02:21:42.282Z,7.30
2019-04-11T02:22:54.962Z,7.30
2019-04-11T02:24:19.443Z,7.30
2019-04-11T02:25:52.743Z,7.31
2019-04-11T02:27:14.759Z,7.31
2019-04-11T02:28:20.807Z,7.29
2019-04-11T02:29:25.891Z,7.29
2019-04-11T02:30:33.967Z,7.27
2019-04-11T02:31:40.121Z,7.25
2019-04-11T02:32:47.357Z,7.24
2019-04-11T02:33:55.112Z,7.23
2019-04-11T02:35:02.442Z,7.21
2019-04-11T02:36:07.982Z,7.20
2019-04-11T02:37:15.294Z,7.19
2019-04-11T02:38:21.372Z,7.19
2019-04-11T02:39:30.762Z,7.18
2019-04-11T02:40:36.645Z,7.17
2019-04-11T02:41:42.290Z,7.17
2019-04-11T02:42:47.663Z,7.16
2019-04-11T02:43:52.999Z,7.16
2019-04-11T02:45:13.223Z,7.16
2019-04-11T02:46:17.274Z,7.15
2019-04-11T02:47:16.209Z,7.15
2019-04-11T02:48:20.698Z,7.16
2019-04-11T02:49:27.764Z,7.14
2019-04-11T02:50:34.431Z,7.13
2019-04-11T02:51:40.274Z,7.13
2019-04-11T02:52:47.221Z,7.11
2019-04-11T02:53:54.274Z,7.11
2019-04-11T02:55:00.793Z,7.09
2019-04-11T02:56:06.880Z,7.09
2019-04-11T02:57:14.139Z,7.07
2019-04-11T02:58:20.576Z,7.07
2019-04-11T02:59:27.328Z,7.06
2019-04-11T03:00:33.650Z,7.07
2019-04-11T03:01:39.970Z,7.07
2019-04-11T03:02:45.169Z,7.07
2019-04-11T03:03:51.969Z,7.04
2019-04-11T03:04:57.679Z,7.05
2019-04-11T03:06:04.470Z,7.03
2019-04-11T03:07:09.929Z,7.05
2019-04-11T03:08:18.942Z,7.03
2019-04-11T03:09:24.022Z,7.03
2019-04-11T03:10:29.086Z,7.03
2019-04-11T03:11:34.645Z,7.03
2019-04-11T03:12:40.566Z,7.03
2019-04-11T03:13:50.442Z,7.02
2019-04-11T03:15:13.003Z,7.03
2019-04-11T03:16:19.236Z,7.02
2019-04-11T03:17:18.895Z,7.01
2019-04-11T03:18:35.592Z,7.02
2019-04-11T03:19:37.462Z,7.02
2019-04-11T03:20:37.114Z,7.02
2019-04-11T03:21:41.196Z,7.03
2019-04-11T03:22:48.809Z,7.03
2019-04-11T03:23:51.943Z,7.05
2019-04-11T03:24:58.403Z,7.05
2019-04-11T03:26:05.298Z,7.05
2019-04-11T03:27:11.986Z,7.06
2019-04-11T03:28:22.687Z,7.05
2019-04-11T03:29:26.565Z,7.03
2019-04-11T03:30:49.002Z,7.02
2019-04-11T03:33:42.961Z,7.01
2019-04-11T03:35:51.258Z,6.99
2019-04-11T03:37:00.561Z,6.98
2019-04-11T03:37:38.053Z,6.99
2019-04-11T03:38:44.129Z,6.99
2019-04-11T03:39:53.149Z,6.97
2019-04-11T03:40:50.565Z,6.96
2019-04-11T03:41:59.896Z,6.96
2019-04-11T03:43:04.062Z,6.95
2019-04-11T03:44:04.325Z,6.93
2019-04-11T03:45:26.398Z,6.93
2019-04-11T03:46:29.219Z,6.93
2019-04-11T03:47:33.856Z,6.93
2019-04-11T03:48:40.883Z,6.93
2019-04-11T03:49:43.230Z,6.92
2019-04-11T03:50:40.202Z,6.92
2019-04-11T03:51:47.878Z,6.91
2019-04-11T03:52:53.914Z,6.90
2019-04-11T03:54:01.077Z,6.88
2019-04-11T03:55:08.328Z,6.87
2019-04-11T03:56:14.110Z,6.88
2019-04-11T03:57:21.505Z,6.86
2019-04-11T03:58:29.230Z,6.86
2019-04-11T03:59:36.601Z,6.85
2019-04-11T04:00:43.975Z,6.84
2019-04-11T04:01:50.646Z,6.83
2019-04-11T04:02:57.595Z,6.81
2019-04-11T04:04:03.402Z,6.80
2019-04-11T04:05:10.606Z,6.79
2019-04-11T04:06:16.979Z,6.80
2019-04-11T04:07:24.243Z,6.78
2019-04-11T04:08:31.318Z,6.79
2019-04-11T04:09:37.392Z,6.78
2019-04-11T04:11:04.027Z,6.77
2019-04-11T04:12:11.409Z,6.76
2019-04-11T04:13:18.965Z,6.75
2019-04-11T04:14:30.534Z,6.74
2019-04-11T04:16:09.922Z,6.74
2019-04-11T04:17:35.911Z,6.73
2019-04-11T04:18:52.185Z,6.71
2019-04-11T04:20:29.069Z,6.68
2019-04-11T04:21:43.784Z,6.66
2019-04-11T04:23:07.628Z,6.65
2019-04-11T04:24:37.870Z,6.64
2019-04-11T04:25:42.766Z,6.62
2019-04-11T04:26:48.464Z,6.59
2019-04-11T04:27:54.704Z,6.56
2019-04-11T04:29:02.094Z,6.54
2019-04-11T04:30:08.610Z,6.54
2019-04-11T04:31:16.268Z,6.54
2019-04-11T04:32:23.217Z,6.55
2019-04-11T04:33:30.640Z,6.56
2019-04-11T04:34:36.703Z,6.57
2019-04-11T04:35:42.926Z,6.57
2019-04-11T04:36:49.692Z,6.58
2019-04-11T04:37:56.940Z,6.58
2019-04-11T04:39:04.190Z,6.58
2019-04-11T04:40:31.214Z,6.59
2019-04-11T04:41:30.980Z,6.57
2019-04-11T04:42:33.312Z,6.58
2019-04-11T04:43:36.509Z,6.57
2019-04-11T04:44:42.899Z,6.56
2019-04-11T04:46:03.384Z,6.56
2019-04-11T04:47:09.191Z,6.56
2019-04-11T04:48:07.271Z,6.56
2019-04-11T04:49:09.163Z,6.58
2019-04-11T04:50:14.869Z,6.59
2019-04-11T04:51:20.674Z,6.57
2019-04-11T04:52:28.042Z,6.57
2019-04-11T04:53:35.015Z,6.57
2019-04-11T04:54:41.005Z,6.56
2019-04-11T04:55:47.854Z,6.55
2019-04-11T04:56:54.515Z,6.57
2019-04-11T04:58:00.271Z,6.56
2019-04-11T04:59:07.101Z,6.56
2019-04-11T05:00:14.852Z,6.56
2019-04-11T05:01:21.743Z,6.56
2019-04-11T05:02:28.241Z,6.56
2019-04-11T05:03:34.602Z,6.56
2019-04-11T05:04:40.313Z,6.55
2019-04-11T05:05:46.550Z,6.55
2019-04-11T05:06:52.928Z,6.56
2019-04-11T05:08:00.422Z,6.56
2019-04-11T05:09:06.744Z,6.56
2019-04-11T05:10:13.455Z,6.56
2019-04-11T05:11:18.690Z,6.58
2019-04-11T05:12:23.632Z,6.59
2019-04-11T05:13:30.218Z,6.61
2019-04-11T05:14:37.229Z,6.61
2019-04-11T05:15:43.583Z,6.62
2019-04-11T05:16:50.416Z,6.61
2019-04-11T05:17:55.683Z,6.58
2019-04-11T05:19:04.520Z,6.55
2019-04-11T05:20:09.864Z,6.55
2019-04-11T05:21:14.974Z,6.55
2019-04-11T05:22:19.929Z,6.55
2019-04-11T05:23:25.501Z,6.55
2019-04-11T05:24:30.677Z,6.59
2019-04-11T05:25:36.955Z,6.59
2019-04-11T05:26:42.192Z,6.61
2019-04-11T05:27:47.577Z,6.62
2019-04-11T05:28:53.020Z,6.61
2019-04-11T05:29:58.495Z,6.62
2019-04-11T05:31:03.845Z,6.63
2019-04-11T05:32:09.436Z,6.63
2019-04-11T05:33:14.833Z,6.63
2019-04-11T05:34:20.278Z,6.62
2019-04-11T05:35:25.314Z,6.64
2019-04-11T05:36:30.498Z,6.62
2019-04-11T05:37:36.341Z,6.63
2019-04-11T05:38:42.216Z,6.64
2019-04-11T05:39:48.233Z,6.66
2019-04-11T05:40:54.458Z,6.67
2019-04-11T05:41:59.723Z,6.71
2019-04-11T05:43:05.902Z,6.74
2019-04-11T05:44:11.055Z,6.76
2019-04-11T05:45:20.855Z,6.79
2019-04-11T05:46:31.088Z,6.86
2019-04-11T05:47:29.811Z,6.89
2019-04-11T05:48:43.786Z,6.94
2019-04-11T05:50:06.505Z,6.97
2019-04-11T05:51:10.935Z,7.01
2019-04-11T05:52:16.093Z,7.06
2019-04-11T05:53:21.426Z,7.10
2019-04-11T05:54:28.585Z,7.17
2019-04-11T05:55:41.352Z,7.20
2019-04-11T05:56:48.709Z,7.24
2019-04-11T05:57:52.425Z,7.29
2019-04-11T05:59:02.222Z,7.32
2019-04-11T06:00:09.690Z,7.37
2019-04-11T06:01:24.283Z,7.42
2019-04-11T06:02:51.788Z,7.45
2019-04-11T06:04:00.306Z,7.49
2019-04-11T06:05:33.202Z,7.54
2019-04-11T06:07:01.614Z,7.58
2019-04-11T06:08:09.899Z,7.65
2019-04-11T06:09:20.899Z,7.71
2019-04-11T06:10:46.490Z,7.74
2019-04-11T06:12:11.670Z,7.77
2019-04-11T06:13:20.469Z,7.76
2019-04-11T06:14:33.301Z,7.77
2019-04-11T06:15:43.654Z,7.79
2019-04-11T06:16:54.046Z,7.82
2019-04-11T06:17:56.853Z,7.84
2019-04-11T06:19:30.480Z,7.88
2019-04-11T06:20:45.214Z,7.92
2019-04-11T06:21:53.441Z,7.95
2019-04-11T06:23:17.806Z,7.99
2019-04-11T06:24:44.722Z,8.02
2019-04-11T06:26:18.852Z,8.08
2019-04-11T06:27:49.525Z,8.12
2019-04-11T06:28:59.197Z,8.16
2019-04-11T06:30:44.106Z,8.17
2019-04-11T06:32:14.471Z,8.19
2019-04-11T06:33:30.014Z,8.21
2019-04-11T06:34:38.070Z,8.21
2019-04-11T06:35:58.411Z,8.22
2019-04-11T06:37:33.992Z,8.22
2019-04-11T06:39:01.187Z,8.23
2019-04-11T06:40:13.397Z,8.22
2019-04-11T06:41:36.892Z,8.24
2019-04-11T06:42:47.716Z,8.24
2019-04-11T06:44:04.839Z,8.26
2019-04-11T06:45:27.972Z,8.25
2019-04-11T06:46:55.793Z,8.26
2019-04-11T06:48:13.613Z,8.27
2019-04-11T06:49:26.615Z,8.27
2019-04-11T06:50:43.882Z,8.27
2019-04-11T06:51:56.751Z,8.28
2019-04-11T06:53:02.361Z,8.28
2019-04-11T06:54:21.078Z,8.31
2019-04-11T06:56:01.710Z,8.30
2019-04-11T06:57:10.483Z,8.31
2019-04-11T06:58:23.430Z,8.30
2019-04-11T06:59:32.856Z,8.32
2019-04-11T07:00:41.049Z,8.32
2019-04-11T07:01:47.604Z,8.33
2019-04-11T07:02:55.764Z,8.35
2019-04-11T07:04:05.061Z,8.37
2019-04-11T07:05:10.790Z,8.38
2019-04-11T07:06:19.602Z,8.38
2019-04-11T07:07:28.843Z,8.41
2019-04-11T07:08:40.601Z,8.42
2019-04-11T07:09:57.697Z,8.42
2019-04-11T07:11:05.932Z,8.44
2019-04-11T07:12:24.498Z,8.46
2019-04-11T07:13:37.746Z,8.46
2019-04-11T07:14:47.557Z,8.48
2019-04-11T07:15:55.273Z,8.48
2019-04-11T07:17:18.890Z,8.49
2019-04-11T07:18:41.340Z,8.50
2019-04-11T07:20:04.500Z,8.50
2019-04-11T07:21:11.871Z,8.51
2019-04-11T07:22:36.830Z,8.51
2019-04-11T07:23:59.870Z,8.54
2019-04-11T07:25:22.957Z,8.57
2019-04-11T07:26:31.106Z,8.61
2019-04-11T07:27:36.658Z,8.64
2019-04-11T07:29:04.598Z,8.67
2019-04-11T07:30:27.490Z,8.69
2019-04-11T07:31:58.525Z,8.75
2019-04-11T07:33:22.623Z,8.76
2019-04-11T07:34:45.742Z,8.80
2019-04-11T07:36:08.590Z,8.82
2019-04-11T07:37:28.122Z,8.84
2019-04-11T07:38:41.000Z,8.85
2019-04-11T07:40:17.931Z,8.88
2019-04-11T07:41:43.495Z,8.93
2019-04-11T07:43:13.239Z,8.96
2019-04-11T07:44:17.588Z,8.99
2019-04-11T07:45:29.934Z,9.02
2019-04-11T07:46:53.744Z,9.04
2019-04-11T07:48:07.135Z,9.08
2019-04-11T07:49:12.143Z,9.13
2019-04-11T07:50:19.512Z,9.18
2019-04-11T07:51:29.306Z,9.21
2019-04-11T07:52:39.930Z,9.25
2019-04-11T07:53:48.135Z,9.27
2019-04-11T07:54:55.749Z,9.29
2019-04-11T07:56:03.269Z,9.31
2019-04-11T07:57:12.984Z,9.34
2019-04-11T07:58:27.205Z,9.37
2019-04-11T07:59:55.731Z,9.40
2019-04-11T08:01:19.029Z,9.41
2019-04-11T08:02:53.184Z,9.43
2019-04-11T08:04:20.206Z,9.43
2019-04-11T08:05:50.803Z,9.44
2019-04-11T08:07:28.171Z,9.46
2019-04-11T08:08:41.222Z,9.47
2019-04-11T08:09:50.727Z,9.50
2019-04-11T08:11:15.796Z,9.50
2019-04-11T08:12:23.643Z,9.52
2019-04-11T08:13:34.542Z,9.54
2019-04-11T08:15:02.337Z,9.57
2019-04-11T08:16:26.777Z,9.57
2019-04-11T08:17:40.072Z,9.60
2019-04-11T08:18:50.936Z,9.63
2019-04-11T08:20:15.265Z,9.66
2019-04-11T08:21:48.426Z,9.69
2019-04-11T08:22:57.173Z,9.71
2019-04-11T08:24:04.520Z,9.73
2019-04-11T08:25:29.316Z,9.74
2019-04-11T08:26:59.264Z,9.76
2019-04-11T08:28:09.239Z,9.77
2019-04-11T08:29:15.682Z,9.80
2019-04-11T08:30:22.538Z,9.84
2019-04-11T08:32:05.693Z,9.84
2019-04-11T08:33:10.879Z,9.86
2019-04-11T08:34:17.241Z,9.89
2019-04-11T08:35:44.381Z,9.90
2019-04-11T08:37:07.439Z,9.92
2019-04-11T08:38:18.521Z,9.95
2019-04-11T08:39:37.407Z,9.99
2019-04-11T08:41:01.410Z,10.02
2019-04-11T08:42:39.152Z,10.04
2019-04-11T08:43:45.544Z,10.03
2019-04-11T08:44:52.134Z,10.11
2019-04-11T08:46:07.238Z,10.12
2019-04-11T08:47:14.494Z,10.15
2019-04-11T08:48:19.623Z,10.12
2019-04-11T08:49:32.070Z,10.12
2019-04-11T08:50:40.798Z,10.27
2019-04-11T08:51:46.066Z,10.27
2019-04-11T08:53:06.616Z,10.30
2019-04-11T08:54:40.151Z,10.32
2019-04-11T08:56:00.494Z,10.34
2019-04-11T08:57:04.637Z,10.35
2019-04-11T08:58:22.604Z,10.37
2019-04-11T08:59:53.638Z,10.39
2019-04-11T09:02:16.456Z,10.43
2019-04-11T09:03:44.098Z,10.46
2019-04-11T09:05:13.692Z,10.48
2019-04-11T09:06:18.699Z,10.53
2019-04-11T09:07:29.604Z,10.53
2019-04-11T09:09:00.159Z,10.56
2019-04-11T09:10:24.162Z,10.58
2019-04-11T09:11:33.087Z,10.58
2019-04-11T09:12:40.743Z,10.56
2019-04-11T09:14:08.163Z,10.56
2019-04-11T09:15:45.383Z,10.64
2019-04-11T09:17:01.782Z,10.78
2019-04-11T09:18:12.239Z,10.78
2019-04-11T09:19:37.528Z,10.83
2019-04-11T09:21:04.379Z,10.87
2019-04-11T09:22:28.984Z,10.91
2019-04-11T09:23:35.680Z,10.93
2019-04-11T09:25:15.119Z,10.96
2019-04-11T09:26:38.119Z,10.97
2019-04-11T09:27:44.912Z,10.97
2019-04-11T09:28:53.448Z,10.95
2019-04-11T09:30:02.487Z,10.98
2019-04-11T09:31:42.188Z,10.98
2019-04-11T09:33:08.916Z,10.98
2019-04-11T09:34:31.965Z,11.01
2019-04-11T09:35:37.448Z,11.06
2019-04-11T09:37:01.591Z,11.12
2019-04-11T09:38:06.709Z,11.19
2019-04-11T09:39:19.148Z,11.19
2019-04-11T09:40:58.796Z,11.22
2019-04-11T09:42:23.008Z,11.22
2019-04-11T09:43:31.785Z,11.24
2019-04-11T09:44:53.063Z,11.23
2019-04-11T09:46:21.959Z,11.22
2019-04-11T09:48:08.522Z,11.21
2019-04-11T09:49:27.062Z,11.20
2019-04-11T09:50:53.258Z,11.21
2019-04-11T09:52:03.037Z,11.23
2019-04-11T09:53:08.247Z,11.27
2019-04-11T09:54:17.696Z,11.31
2019-04-11T09:55:33.255Z,11.32
2019-04-11T09:57:00.329Z,11.36
2019-04-11T09:58:11.536Z,11.39
2019-04-11T09:59:22.911Z,11.43
2019-04-11T10:00:47.395Z,11.45
2019-04-11T10:02:02.760Z,11.46
2019-04-11T10:03:15.716Z,11.46
2019-04-11T10:04:21.139Z,11.45
2019-04-11T10:05:36.751Z,11.44
2019-04-11T10:06:59.159Z,11.43
2019-04-11T10:08:39.658Z,11.43
2019-04-11T10:10:04.548Z,11.42
2019-04-11T10:11:30.320Z,11.39
2019-04-11T10:12:54.205Z,11.36
2019-04-11T10:14:05.361Z,11.33
2019-04-11T10:15:11.440Z,11.33
2019-04-11T10:16:35.827Z,11.34
2019-04-11T10:17:59.101Z,11.35
2019-04-11T10:19:11.731Z,11.35
2019-04-11T10:20:18.319Z,11.35
2019-04-11T10:21:24.717Z,11.36
2019-04-11T10:22:48.975Z,11.38
2019-04-11T10:24:18.594Z,11.39
2019-04-11T10:25:37.344Z,11.40
2019-04-11T10:26:46.271Z,11.41
2019-04-11T10:28:29.698Z,11.41
2019-04-11T10:29:57.021Z,11.40
2019-04-11T10:31:22.368Z,11.39
2019-04-11T10:32:30.933Z,11.38
2019-04-11T10:33:55.521Z,11.37
2019-04-11T10:35:26.132Z,11.38
2019-04-11T10:36:59.205Z,11.37
2019-04-11T10:38:05.708Z,11.35
2019-04-11T10:39:33.775Z,11.35
2019-04-11T10:41:04.180Z,11.35
2019-04-11T10:42:12.524Z,11.27
2019-04-11T10:43:18.433Z,11.35
2019-04-11T10:44:36.086Z,11.37
2019-04-11T10:46:03.209Z,11.39
2019-04-11T10:47:14.458Z,11.42
2019-04-11T10:48:32.603Z,11.48
2019-04-11T10:49:50.553Z,11.56
2019-04-11T10:51:13.048Z,11.56
2019-04-11T10:52:30.857Z,11.61
2019-04-11T10:53:35.980Z,11.65
2019-04-11T10:54:42.066Z,11.69
2019-04-11T10:56:10.614Z,11.72
2019-04-11T10:57:47.009Z,11.75
2019-04-11T11:00:15.721Z,11.82
2019-04-11T11:01:32.379Z,11.83
2019-04-11T11:03:09.591Z,11.82
2019-04-11T11:04:18.020Z,11.84
2019-04-11T11:05:24.295Z,11.86
2019-04-11T11:06:29.981Z,11.88
2019-04-11T11:07:35.106Z,11.87
2019-04-11T11:09:02.572Z,11.88
2019-04-11T11:10:20.250Z,11.87
2019-04-11T11:11:30.376Z,11.94
2019-04-11T11:12:41.513Z,11.98
2019-04-11T11:14:10.221Z,12.00
2019-04-11T11:15:19.840Z,12.03
2019-04-11T11:16:30.519Z,12.02
2019-04-11T11:18:35.102Z,12.02
2019-04-11T11:19:54.030Z,12.04
2019-04-11T11:20:55.741Z,12.08
2019-04-11T11:22:25.247Z,12.09
2019-04-11T11:23:49.335Z,12.10
2019-04-11T11:25:28.863Z,12.06
2019-04-11T11:26:35.691Z,12.01
2019-04-11T11:27:41.622Z,12.00
2019-04-11T11:29:08.417Z,11.98
2019-04-11T11:30:31.456Z,11.97
2019-04-11T11:31:42.794Z,11.97
2019-04-11T11:32:49.677Z,12.01
2019-04-11T11:33:56.548Z,12.01
2019-04-11T11:35:24.074Z,12.06
2019-04-11T11:36:44.091Z,12.08
2019-04-11T11:37:53.437Z,12.08
2019-04-11T11:39:17.510Z,12.08
2019-04-11T11:40:42.409Z,12.07
2019-04-11T11:42:06.236Z,12.08
2019-04-11T11:43:18.941Z,12.09
2019-04-11T11:44:27.219Z,12.12
2019-04-11T11:45:39.673Z,12.15
2019-04-11T11:47:06.855Z,12.18
2019-04-11T11:48:35.577Z,12.18
2019-04-11T11:49:51.700Z,12.17
2019-04-11T11:50:50.470Z,12.18
2019-04-11T11:52:15.174Z,12.20
2019-04-11T11:53:41.302Z,12.23
2019-04-11T11:54:49.635Z,12.26
2019-04-11T11:55:55.693Z,12.29
2019-04-11T11:57:04.633Z,12.30
2019-04-11T11:58:27.942Z,12.30
2019-04-11T11:59:40.736Z,12.31
2019-04-11T12:00:49.014Z,12.31
2019-04-11T12:02:06.342Z,12.33
2019-04-11T12:03:31.038Z,12.35
2019-04-11T12:05:07.866Z,12.37
2019-04-11T12:06:12.690Z,12.37
2019-04-11T12:07:20.920Z,12.38
2019-04-11T12:08:46.595Z,12.39
2019-04-11T12:10:09.655Z,12.39
2019-04-11T12:11:15.705Z,12.41
2019-04-11T12:12:25.639Z,12.44
2019-04-11T12:14:02.017Z,12.47
2019-04-11T12:15:45.548Z,12.51
2019-04-11T12:17:06.818Z,12.53
2019-04-11T12:18:32.937Z,12.56
2019-04-11T12:20:04.830Z,12.59
2019-04-11T12:21:05.628Z,12.59
2019-04-11T12:22:10.875Z,12.62
2019-04-11T12:23:43.838Z,12.65
2019-04-11T12:24:44.755Z,12.70
2019-04-11T12:25:49.889Z,12.75
2019-04-11T12:27:10.213Z,12.80
2019-04-11T12:28:27.602Z,12.78
2019-04-11T12:29:47.945Z,12.76
2019-04-11T12:30:57.962Z,12.75
2019-04-11T12:32:04.093Z,12.74
2019-04-11T12:33:37.440Z,12.73
2019-04-11T12:35:06.039Z,12.73
2019-04-11T12:36:15.038Z,12.74
2019-04-11T12:37:25.493Z,12.76
2019-04-11T12:38:55.594Z,12.78
2019-04-11T12:40:31.834Z,12.79
2019-04-11T12:42:05.214Z,12.81
2019-04-11T12:43:10.872Z,12.83
2019-04-11T12:44:49.949Z,12.87
2019-04-11T12:46:13.912Z,12.88
2019-04-11T12:47:33.944Z,12.87
2019-04-11T12:48:42.510Z,12.89
2019-04-11T12:50:21.956Z,12.89
2019-04-11T12:51:55.005Z,12.90
2019-04-11T12:53:17.559Z,12.92
2019-04-11T12:54:27.209Z,12.92
2019-04-11T12:55:56.995Z,12.93
2019-04-11T12:57:27.033Z,12.94
2019-04-11T12:58:36.073Z,12.96
2019-04-11T12:59:41.088Z,12.97
2019-04-11T13:01:17.400Z,12.98
2019-04-11T13:02:40.064Z,12.98
2019-04-11T13:04:18.143Z,13.00
2019-04-11T13:05:23.853Z,13.01
2019-04-11T13:06:46.681Z,13.04
2019-04-11T13:08:10.740Z,13.08
2019-04-11T13:09:27.803Z,13.13
2019-04-11T13:10:35.708Z,13.16
2019-04-11T13:11:42.700Z,13.15
2019-04-11T13:12:59.774Z,13.14
2019-04-11T13:14:23.160Z,13.12
2019-04-11T13:15:37.677Z,13.12
2019-04-11T13:16:44.122Z,13.09
2019-04-11T13:17:57.934Z,13.06
2019-04-11T13:19:17.090Z,13.06
2019-04-11T13:20:47.350Z,13.05
2019-04-11T13:22:07.756Z,13.05
2019-04-11T13:23:26.537Z,13.05
2019-04-11T13:25:02.499Z,13.07
2019-04-11T13:26:37.177Z,13.08
2019-04-11T13:27:48.838Z,13.14
2019-04-11T13:29:02.457Z,13.18
2019-04-11T13:30:28.102Z,13.21
2019-04-11T13:31:50.893Z,13.23
2019-04-11T13:32:57.920Z,13.26
2019-04-11T13:34:04.370Z,13.25
2019-04-11T13:35:29.071Z,13.25
2019-04-11T13:36:56.346Z,13.25
2019-04-11T13:38:13.092Z,13.22
2019-04-11T13:39:18.134Z,13.20
2019-04-11T13:40:40.671Z,13.20
2019-04-11T13:41:53.930Z,13.16
2019-04-11T13:43:16.593Z,13.14
2019-04-11T13:44:27.717Z,13.13
2019-04-11T13:45:33.116Z,13.10
2019-04-11T13:46:57.145Z,13.07
2019-04-11T13:48:20.174Z,13.06
2019-04-11T13:49:43.387Z,13.08
2019-04-11T13:50:48.907Z,13.10
2019-04-11T13:52:28.166Z,13.11
2019-04-11T13:54:01.118Z,13.14
2019-04-11T13:55:32.023Z,13.16
2019-04-11T13:56:52.091Z,13.15
2019-04-11T13:58:16.176Z,13.18
2019-04-11T13:59:46.585Z,13.20
2019-04-11T14:01:03.265Z,13.19
2019-04-11T14:02:16.218Z,13.22
2019-04-11T14:03:46.219Z,13.22
2019-04-11T14:04:51.189Z,13.23
2019-04-11T14:05:58.364Z,13.24
2019-04-11T14:07:03.443Z,13.25
2019-04-11T14:08:08.880Z,13.29
2019-04-11T14:09:39.062Z,13.32
2019-04-11T14:10:54.359Z,13.33
2019-04-11T14:12:00.362Z,13.37
2019-04-11T14:13:07.295Z,13.39
2019-04-11T14:14:15.511Z,13.40
2019-04-11T14:15:22.174Z,13.45
2019-04-11T14:16:27.280Z,13.44
2019-04-11T14:17:56.985Z,13.39
2019-04-11T14:19:12.389Z,13.35
2019-04-11T14:20:29.577Z,13.30
2019-04-11T14:21:32.703Z,13.27
2019-04-11T14:22:47.998Z,13.22
2019-04-11T14:24:18.513Z,13.18
2019-04-11T14:25:41.493Z,13.15
2019-04-11T14:26:49.088Z,13.13
2019-04-11T14:27:56.399Z,13.06
2019-04-11T14:29:19.434Z,13.03
2019-04-11T14:30:42.814Z,13.04
2019-04-11T14:31:57.449Z,13.04
2019-04-11T14:33:02.463Z,13.02
2019-04-11T14:34:13.632Z,12.99
2019-04-11T14:35:32.208Z,12.99
2019-04-11T14:36:48.543Z,12.97
2019-04-11T14:38:13.876Z,12.96
2019-04-11T14:39:19.899Z,12.98
2019-04-11T14:40:42.881Z,12.99
2019-04-11T14:42:05.957Z,12.98
2019-04-11T14:43:28.588Z,12.98
2019-04-11T14:44:34.672Z,12.94
2019-04-11T14:46:08.366Z,12.92
2019-04-11T14:47:41.660Z,12.91
2019-04-11T14:48:51.405Z,12.92
2019-04-11T14:50:01.502Z,12.91
2019-04-11T14:51:15.835Z,12.92
2019-04-11T14:52:35.926Z,12.92
2019-04-11T14:53:53.542Z,12.92
2019-04-11T14:55:01.182Z,12.91
2019-04-11T14:56:08.191Z,12.88
2019-04-11T14:57:29.687Z,12.85
2019-04-11T14:58:55.220Z,12.82
2019-04-11T15:00:13.045Z,12.78
2019-04-11T15:01:18.165Z,12.75
2019-04-11T15:02:41.323Z,12.74
2019-04-11T15:04:01.587Z,12.74
2019-04-11T15:05:21.872Z,12.75
2019-04-11T15:06:31.527Z,12.76
2019-04-11T15:07:37.274Z,12.75
2019-04-11T15:08:51.169Z,12.75
2019-04-11T15:10:07.952Z,12.76
2019-04-11T15:11:38.010Z,12.73
2019-04-11T15:12:42.989Z,12.73
2019-04-11T15:13:49.934Z,12.73
2019-04-11T15:15:19.985Z,12.74
2019-04-11T15:16:47.370Z,12.76
2019-04-11T15:17:58.127Z,12.79
2019-04-11T15:19:03.627Z,12.81
2019-04-11T15:20:42.395Z,12.81
2019-04-11T15:22:07.387Z,12.81
2019-04-11T15:23:24.459Z,12.79
2019-04-11T15:24:29.869Z,12.77
2019-04-11T15:25:55.256Z,12.76
2019-04-11T15:27:28.820Z,12.77
2019-04-11T15:28:51.656Z,12.79
2019-04-11T15:29:58.469Z,12.80
2019-04-11T15:31:11.664Z,12.82
2019-04-11T15:32:38.387Z,12.83
2019-04-11T15:33:48.881Z,12.86
2019-04-11T15:34:56.566Z,12.87
2019-04-11T15:36:01.972Z,12.90
2019-04-11T15:37:17.681Z,12.90
2019-04-11T15:38:48.251Z,12.90
2019-04-11T15:40:10.969Z,12.88
2019-04-11T15:41:16.052Z,12.84
2019-04-11T15:42:31.634Z,12.80
2019-04-11T15:43:54.404Z,12.76
2019-04-11T15:45:16.610Z,12.73
2019-04-11T15:46:26.196Z,12.68
2019-04-11T15:47:31.154Z,12.64
2019-04-11T15:49:01.451Z,12.62
2019-04-11T15:50:25.856Z,12.58
2019-04-11T15:51:35.334Z,12.55
2019-04-11T15:52:51.632Z,12.52
2019-04-11T15:54:28.340Z,12.51
2019-04-11T15:55:52.311Z,12.51
2019-04-11T15:57:31.981Z,12.52
2019-04-11T15:58:43.136Z,12.52
2019-04-11T16:00:07.288Z,12.54
2019-04-11T16:01:33.711Z,12.54
2019-04-11T16:03:07.098Z,12.54
2019-04-11T16:04:26.067Z,12.57
2019-04-11T16:05:50.138Z,12.57
2019-04-11T16:07:20.059Z,12.57
2019-04-11T16:08:53.643Z,12.56
2019-04-11T16:09:58.691Z,12.55
2019-04-11T16:11:12.331Z,12.56
2019-04-11T16:12:27.595Z,12.56
2019-04-11T16:13:57.687Z,12.56